sensor_id;sensor_type;location;lat;lon;timestamp;temperature;humidity
35804;DHT22;21924;51.934;7.414;2022-11-25T00:01:48;5.20;99.90
35804;DHT22;21924;51.934;7.414;2022-11-25T00:04:33;5.20;99.90
35804;DHT22;21924;51.934;7.414;2022-11-25T00:07:19;5.20;99.90
35804;DHT22;21924;51.934;7.414;2022-11-25T00:10:05;5.20;99.90
35804;DHT22;21924;51.934;7.414;2022-11-25T00:12:49;5.10;99.90
35804;DHT22;21924;51.934;7.414;2022-11-25T00:15:33;5.20;99.90
35804;DHT22;21924;51.934;7.414;2022-11-25T00:18:17;5.20;99.90
35804;DHT22;21924;51.934;7.414;2022-11-25T00:21:09;5.10;99.90
35804;DHT22;21924;51.934;7.414;2022-11-25T00:23:56;5.20;99.90
35804;DHT22;21924;51.934;7.414;2022-11-25T00:26:41;5.20;99.90
35804;DHT22;21924;51.934;7.414;2022-11-25T00:29:25;5.20;99.90
35804;DHT22;21924;51.934;7.414;2022-11-25T00:32:09;5.10;99.90
35804;DHT22;21924;51.934;7.414;2022-11-25T00:34:53;5.00;99.90
35804;DHT22;21924;51.934;7.414;2022-11-25T00:37:37;5.10;99.90
35804;DHT22;21924;51.934;7.414;2022-11-25T00:40:21;5.00;99.90
35804;DHT22;21924;51.934;7.414;2022-11-25T00:43:07;5.00;99.90
35804;DHT22;21924;51.934;7.414;2022-11-25T00:46:10;4.90;99.90
35804;DHT22;21924;51.934;7.414;2022-11-25T00:48:54;5.10;99.90
35804;DHT22;21924;51.934;7.414;2022-11-25T00:51:38;5.10;99.90
35804;DHT22;21924;51.934;7.414;2022-11-25T00:54:23;5.00;99.90
35804;DHT22;21924;51.934;7.414;2022-11-25T00:57:07;5.10;99.90
35804;DHT22;21924;51.934;7.414;2022-11-25T00:59:51;5.20;99.90
35804;DHT22;21924;51.934;7.414;2022-11-25T01:02:35;5.30;99.90
35804;DHT22;21924;51.934;7.414;2022-11-25T01:05:20;5.30;99.90
35804;DHT22;21924;51.934;7.414;2022-11-25T01:08:04;5.30;99.90
35804;DHT22;21924;51.934;7.414;2022-11-25T01:10:48;5.40;99.90
35804;DHT22;21924;51.934;7.414;2022-11-25T01:13:40;5.50;99.90
35804;DHT22;21924;51.934;7.414;2022-11-25T01:16:25;5.50;99.90
35804;DHT22;21924;51.934;7.414;2022-11-25T01:19:10;5.60;99.90
35804;DHT22;21924;51.934;7.414;2022-11-25T01:21:55;5.70;99.90
35804;DHT22;21924;51.934;7.414;2022-11-25T01:24:39;5.70;99.90
35804;DHT22;21924;51.934;7.414;2022-11-25T01:27:23;5.70;99.90
35804;DHT22;21924;51.934;7.414;2022-11-25T01:30:08;5.70;99.90
35804;DHT22;21924;51.934;7.414;2022-11-25T01:32:53;5.70;99.90
35804;DHT22;21924;51.934;7.414;2022-11-25T01:35:37;5.70;99.90
35804;DHT22;21924;51.934;7.414;2022-11-25T01:38:22;5.80;99.90
35804;DHT22;21924;51.934;7.414;2022-11-25T01:41:08;5.80;99.90
35804;DHT22;21924;51.934;7.414;2022-11-25T01:44:13;5.90;99.90
35804;DHT22;21924;51.934;7.414;2022-11-25T01:47:21;5.90;99.90
35804;DHT22;21924;51.934;7.414;2022-11-25T01:50:09;5.90;99.90
35804;DHT22;21924;51.934;7.414;2022-11-25T01:52:56;6.00;99.90
35804;DHT22;21924;51.934;7.414;2022-11-25T01:55:53;5.90;99.90
35804;DHT22;21924;51.934;7.414;2022-11-25T01:58:39;6.00;99.90
35804;DHT22;21924;51.934;7.414;2022-11-25T02:01:23;6.00;99.90
35804;DHT22;21924;51.934;7.414;2022-11-25T02:04:10;6.00;99.90
35804;DHT22;21924;51.934;7.414;2022-11-25T02:06:59;6.10;99.90
35804;DHT22;21924;51.934;7.414;2022-11-25T02:09:46;6.10;99.90
35804;DHT22;21924;51.934;7.414;2022-11-25T02:12:34;6.10;99.90
35804;DHT22;21924;51.934;7.414;2022-11-25T02:15:20;6.10;99.90
35804;DHT22;21924;51.934;7.414;2022-11-25T02:18:05;6.20;99.90
35804;DHT22;21924;51.934;7.414;2022-11-25T02:20:49;6.20;99.90
35804;DHT22;21924;51.934;7.414;2022-11-25T02:23:50;6.30;99.90
35804;DHT22;21924;51.934;7.414;2022-11-25T02:26:36;6.30;99.90
35804;DHT22;21924;51.934;7.414;2022-11-25T02:29:21;6.20;99.90
35804;DHT22;21924;51.934;7.414;2022-11-25T02:32:05;6.20;99.90
35804;DHT22;21924;51.934;7.414;2022-11-25T02:34:49;6.30;99.90
35804;DHT22;21924;51.934;7.414;2022-11-25T02:37:33;6.30;99.90
35804;DHT22;21924;51.934;7.414;2022-11-25T02:40:18;6.30;99.90
35804;DHT22;21924;51.934;7.414;2022-11-25T02:43:02;6.40;99.90
35804;DHT22;21924;51.934;7.414;2022-11-25T02:45:56;6.30;99.90
35804;DHT22;21924;51.934;7.414;2022-11-25T02:48:42;6.30;99.90
35804;DHT22;21924;51.934;7.414;2022-11-25T02:51:29;6.30;99.90
35804;DHT22;21924;51.934;7.414;2022-11-25T02:54:14;6.30;99.90
35804;DHT22;21924;51.934;7.414;2022-11-25T02:56:59;6.30;99.90
35804;DHT22;21924;51.934;7.414;2022-11-25T02:59:43;6.40;99.90
35804;DHT22;21924;51.934;7.414;2022-11-25T03:02:28;6.50;99.90
35804;DHT22;21924;51.934;7.414;2022-11-25T03:05:12;6.50;99.90
35804;DHT22;21924;51.934;7.414;2022-11-25T03:07:56;6.40;99.90
35804;DHT22;21924;51.934;7.414;2022-11-25T03:10:41;6.60;99.90
35804;DHT22;21924;51.934;7.414;2022-11-25T03:13:26;6.60;99.90
35804;DHT22;21924;51.934;7.414;2022-11-25T03:16:10;6.60;99.90
35804;DHT22;21924;51.934;7.414;2022-11-25T03:18:55;6.70;99.90
35804;DHT22;21924;51.934;7.414;2022-11-25T03:21:39;6.70;99.90
35804;DHT22;21924;51.934;7.414;2022-11-25T03:24:23;6.70;99.90
35804;DHT22;21924;51.934;7.414;2022-11-25T03:27:07;6.70;99.90
35804;DHT22;21924;51.934;7.414;2022-11-25T03:29:52;6.70;99.90
35804;DHT22;21924;51.934;7.414;2022-11-25T03:32:36;6.80;99.90
35804;DHT22;21924;51.934;7.414;2022-11-25T03:35:20;6.80;99.90
35804;DHT22;21924;51.934;7.414;2022-11-25T03:38:05;6.80;99.90
35804;DHT22;21924;51.934;7.414;2022-11-25T03:40:49;6.90;99.90
35804;DHT22;21924;51.934;7.414;2022-11-25T03:43:33;6.90;99.90
35804;DHT22;21924;51.934;7.414;2022-11-25T03:46:18;6.90;99.90
35804;DHT22;21924;51.934;7.414;2022-11-25T03:49:03;6.90;99.90
35804;DHT22;21924;51.934;7.414;2022-11-25T03:51:48;6.90;99.90
35804;DHT22;21924;51.934;7.414;2022-11-25T03:54:32;7.00;99.90
35804;DHT22;21924;51.934;7.414;2022-11-25T03:57:16;7.00;99.90
35804;DHT22;21924;51.934;7.414;2022-11-25T04:00:01;7.10;99.90
35804;DHT22;21924;51.934;7.414;2022-11-25T04:02:45;7.10;99.90
35804;DHT22;21924;51.934;7.414;2022-11-25T04:05:29;7.10;99.90
35804;DHT22;21924;51.934;7.414;2022-11-25T04:08:13;7.10;99.90
35804;DHT22;21924;51.934;7.414;2022-11-25T04:10:58;7.10;99.90
35804;DHT22;21924;51.934;7.414;2022-11-25T04:13:42;7.20;99.90
35804;DHT22;21924;51.934;7.414;2022-11-25T04:16:27;7.20;99.90
35804;DHT22;21924;51.934;7.414;2022-11-25T04:19:11;7.20;99.90
35804;DHT22;21924;51.934;7.414;2022-11-25T04:21:55;7.30;99.90
35804;DHT22;21924;51.934;7.414;2022-11-25T04:24:42;7.30;99.90
35804;DHT22;21924;51.934;7.414;2022-11-25T04:27:26;7.30;99.90
35804;DHT22;21924;51.934;7.414;2022-11-25T04:30:11;7.30;99.90
35804;DHT22;21924;51.934;7.414;2022-11-25T04:32:55;7.30;99.90
35804;DHT22;21924;51.934;7.414;2022-11-25T04:35:39;7.30;99.90
35804;DHT22;21924;51.934;7.414;2022-11-25T04:38:23;7.30;99.90
35804;DHT22;21924;51.934;7.414;2022-11-25T04:41:08;7.30;99.90
35804;DHT22;21924;51.934;7.414;2022-11-25T04:43:52;7.40;99.90
35804;DHT22;21924;51.934;7.414;2022-11-25T04:46:39;7.40;99.90
35804;DHT22;21924;51.934;7.414;2022-11-25T04:49:23;7.50;99.90
35804;DHT22;21924;51.934;7.414;2022-11-25T04:52:07;7.40;99.90
35804;DHT22;21924;51.934;7.414;2022-11-25T04:54:52;7.40;99.90
35804;DHT22;21924;51.934;7.414;2022-11-25T04:57:36;7.40;99.90
35804;DHT22;21924;51.934;7.414;2022-11-25T05:00:20;7.40;99.90
35804;DHT22;21924;51.934;7.414;2022-11-25T05:03:05;7.40;99.90
35804;DHT22;21924;51.934;7.414;2022-11-25T05:05:50;7.30;99.90
35804;DHT22;21924;51.934;7.414;2022-11-25T05:08:35;7.30;99.90
35804;DHT22;21924;51.934;7.414;2022-11-25T05:11:19;7.30;99.90
35804;DHT22;21924;51.934;7.414;2022-11-25T05:14:04;7.30;99.90
35804;DHT22;21924;51.934;7.414;2022-11-25T05:16:48;7.30;99.90
35804;DHT22;21924;51.934;7.414;2022-11-25T05:19:32;7.30;99.90
35804;DHT22;21924;51.934;7.414;2022-11-25T05:22:21;7.30;99.90
35804;DHT22;21924;51.934;7.414;2022-11-25T05:25:06;7.30;99.90
35804;DHT22;21924;51.934;7.414;2022-11-25T05:27:51;7.30;99.90
35804;DHT22;21924;51.934;7.414;2022-11-25T05:30:35;7.30;99.90
35804;DHT22;21924;51.934;7.414;2022-11-25T05:33:19;7.30;99.90
35804;DHT22;21924;51.934;7.414;2022-11-25T05:36:04;7.30;99.90
35804;DHT22;21924;51.934;7.414;2022-11-25T05:38:48;7.30;99.90
35804;DHT22;21924;51.934;7.414;2022-11-25T05:41:33;7.30;99.90
35804;DHT22;21924;51.934;7.414;2022-11-25T05:44:17;7.40;99.90
35804;DHT22;21924;51.934;7.414;2022-11-25T05:47:01;7.50;99.90
35804;DHT22;21924;51.934;7.414;2022-11-25T05:49:45;7.50;99.90
35804;DHT22;21924;51.934;7.414;2022-11-25T05:52:30;7.50;99.90
35804;DHT22;21924;51.934;7.414;2022-11-25T05:55:14;7.50;99.90
35804;DHT22;21924;51.934;7.414;2022-11-25T05:57:59;7.60;99.90
35804;DHT22;21924;51.934;7.414;2022-11-25T06:00:43;7.60;99.90
35804;DHT22;21924;51.934;7.414;2022-11-25T06:03:28;7.60;99.90
35804;DHT22;21924;51.934;7.414;2022-11-25T06:06:12;7.60;99.90
35804;DHT22;21924;51.934;7.414;2022-11-25T06:08:57;7.60;99.90
35804;DHT22;21924;51.934;7.414;2022-11-25T06:11:41;7.60;99.90
35804;DHT22;21924;51.934;7.414;2022-11-25T06:14:25;7.60;99.90
35804;DHT22;21924;51.934;7.414;2022-11-25T06:17:09;7.50;99.90
35804;DHT22;21924;51.934;7.414;2022-11-25T06:19:54;7.60;99.90
35804;DHT22;21924;51.934;7.414;2022-11-25T06:22:38;7.60;99.90
35804;DHT22;21924;51.934;7.414;2022-11-25T06:25:22;7.70;99.90
35804;DHT22;21924;51.934;7.414;2022-11-25T06:28:06;7.80;99.90
35804;DHT22;21924;51.934;7.414;2022-11-25T06:30:51;7.80;99.90
35804;DHT22;21924;51.934;7.414;2022-11-25T06:33:35;7.80;99.90
35804;DHT22;21924;51.934;7.414;2022-11-25T06:36:20;7.80;99.90
35804;DHT22;21924;51.934;7.414;2022-11-25T06:39:05;7.80;99.90
35804;DHT22;21924;51.934;7.414;2022-11-25T06:41:49;7.70;99.90
35804;DHT22;21924;51.934;7.414;2022-11-25T06:44:34;7.70;99.90
35804;DHT22;21924;51.934;7.414;2022-11-25T06:47:18;7.70;99.90
35804;DHT22;21924;51.934;7.414;2022-11-25T06:50:02;7.70;99.90
35804;DHT22;21924;51.934;7.414;2022-11-25T06:52:47;7.70;99.90
35804;DHT22;21924;51.934;7.414;2022-11-25T06:55:31;7.60;99.90
35804;DHT22;21924;51.934;7.414;2022-11-25T06:58:15;7.60;99.90
35804;DHT22;21924;51.934;7.414;2022-11-25T07:01:02;7.70;99.90
35804;DHT22;21924;51.934;7.414;2022-11-25T07:03:51;7.70;99.90
35804;DHT22;21924;51.934;7.414;2022-11-25T07:06:35;7.70;99.90
35804;DHT22;21924;51.934;7.414;2022-11-25T07:09:20;7.70;99.90
35804;DHT22;21924;51.934;7.414;2022-11-25T07:12:05;7.70;99.90
35804;DHT22;21924;51.934;7.414;2022-11-25T07:14:50;7.70;99.90
35804;DHT22;21924;51.934;7.414;2022-11-25T07:17:34;7.70;99.90
35804;DHT22;21924;51.934;7.414;2022-11-25T07:20:18;7.70;99.90
35804;DHT22;21924;51.934;7.414;2022-11-25T07:23:02;7.70;99.90
35804;DHT22;21924;51.934;7.414;2022-11-25T07:25:47;7.70;99.90
35804;DHT22;21924;51.934;7.414;2022-11-25T07:28:32;7.80;99.90
35804;DHT22;21924;51.934;7.414;2022-11-25T07:31:31;7.80;99.90
35804;DHT22;21924;51.934;7.414;2022-11-25T07:34:18;7.80;99.90
35804;DHT22;21924;51.934;7.414;2022-11-25T07:37:03;7.70;99.90
35804;DHT22;21924;51.934;7.414;2022-11-25T07:39:47;7.80;99.90
35804;DHT22;21924;51.934;7.414;2022-11-25T07:42:32;7.70;99.90
35804;DHT22;21924;51.934;7.414;2022-11-25T07:45:16;7.60;99.90
35804;DHT22;21924;51.934;7.414;2022-11-25T07:48:01;7.60;99.90
35804;DHT22;21924;51.934;7.414;2022-11-25T07:50:45;7.50;99.90
35804;DHT22;21924;51.934;7.414;2022-11-25T07:53:33;7.60;99.90
35804;DHT22;21924;51.934;7.414;2022-11-25T07:56:17;7.60;99.90
35804;DHT22;21924;51.934;7.414;2022-11-25T07:59:02;7.60;99.90
35804;DHT22;21924;51.934;7.414;2022-11-25T08:01:51;7.70;99.90
35804;DHT22;21924;51.934;7.414;2022-11-25T08:04:36;7.70;99.90
35804;DHT22;21924;51.934;7.414;2022-11-25T08:07:20;7.80;99.90
35804;DHT22;21924;51.934;7.414;2022-11-25T08:10:05;7.80;99.90
35804;DHT22;21924;51.934;7.414;2022-11-25T08:12:49;7.80;99.90
35804;DHT22;21924;51.934;7.414;2022-11-25T08:15:34;7.70;99.90
35804;DHT22;21924;51.934;7.414;2022-11-25T08:18:18;7.70;99.90
35804;DHT22;21924;51.934;7.414;2022-11-25T08:21:04;7.70;99.90
35804;DHT22;21924;51.934;7.414;2022-11-25T08:23:48;7.70;99.90
35804;DHT22;21924;51.934;7.414;2022-11-25T08:26:35;7.70;99.90
35804;DHT22;21924;51.934;7.414;2022-11-25T08:29:20;7.70;99.90
35804;DHT22;21924;51.934;7.414;2022-11-25T08:32:04;7.70;99.90
35804;DHT22;21924;51.934;7.414;2022-11-25T08:34:51;7.70;99.90
35804;DHT22;21924;51.934;7.414;2022-11-25T08:37:36;7.70;99.90
35804;DHT22;21924;51.934;7.414;2022-11-25T08:40:20;7.80;99.90
35804;DHT22;21924;51.934;7.414;2022-11-25T08:43:04;7.80;99.90
35804;DHT22;21924;51.934;7.414;2022-11-25T08:45:49;7.80;99.90
35804;DHT22;21924;51.934;7.414;2022-11-25T08:48:34;7.90;99.90
35804;DHT22;21924;51.934;7.414;2022-11-25T08:51:21;8.00;99.90
35804;DHT22;21924;51.934;7.414;2022-11-25T08:54:07;8.10;99.90
35804;DHT22;21924;51.934;7.414;2022-11-25T08:56:51;8.20;99.90
35804;DHT22;21924;51.934;7.414;2022-11-25T08:59:35;8.20;99.90
35804;DHT22;21924;51.934;7.414;2022-11-25T09:02:20;8.20;99.90
35804;DHT22;21924;51.934;7.414;2022-11-25T09:05:04;8.30;99.90
35804;DHT22;21924;51.934;7.414;2022-11-25T09:07:48;8.30;99.90
35804;DHT22;21924;51.934;7.414;2022-11-25T09:10:33;8.30;99.90
35804;DHT22;21924;51.934;7.414;2022-11-25T09:13:18;8.40;99.90
35804;DHT22;21924;51.934;7.414;2022-11-25T09:16:02;8.40;99.90
35804;DHT22;21924;51.934;7.414;2022-11-25T09:18:47;8.50;99.90
35804;DHT22;21924;51.934;7.414;2022-11-25T09:21:31;8.50;99.90
35804;DHT22;21924;51.934;7.414;2022-11-25T09:24:15;8.50;99.90
35804;DHT22;21924;51.934;7.414;2022-11-25T09:27:00;8.60;99.90
35804;DHT22;21924;51.934;7.414;2022-11-25T09:29:44;8.70;99.90
35804;DHT22;21924;51.934;7.414;2022-11-25T09:32:28;8.70;99.90
35804;DHT22;21924;51.934;7.414;2022-11-25T09:35:13;8.80;99.90
35804;DHT22;21924;51.934;7.414;2022-11-25T09:37:57;8.80;99.90
35804;DHT22;21924;51.934;7.414;2022-11-25T09:44:12;9.00;99.90
35804;DHT22;21924;51.934;7.414;2022-11-25T09:53:49;9.00;99.90
35804;DHT22;21924;51.934;7.414;2022-11-25T09:56:41;9.10;99.90
35804;DHT22;21924;51.934;7.414;2022-11-25T09:59:33;9.20;99.90
35804;DHT22;21924;51.934;7.414;2022-11-25T10:02:32;9.10;99.90
35804;DHT22;21924;51.934;7.414;2022-11-25T10:05:26;9.10;99.90
35804;DHT22;21924;51.934;7.414;2022-11-25T10:08:18;9.10;99.90
35804;DHT22;21924;51.934;7.414;2022-11-25T10:17:46;9.50;99.90
35804;DHT22;21924;51.934;7.414;2022-11-25T10:20:39;9.60;99.90
35804;DHT22;21924;51.934;7.414;2022-11-25T10:23:26;9.70;99.90
35804;DHT22;21924;51.934;7.414;2022-11-25T10:26:15;9.80;99.90
35804;DHT22;21924;51.934;7.414;2022-11-25T10:29:25;9.90;99.90
35804;DHT22;21924;51.934;7.414;2022-11-25T10:32:23;9.90;99.90
35804;DHT22;21924;51.934;7.414;2022-11-25T10:35:37;9.90;99.90
35804;DHT22;21924;51.934;7.414;2022-11-25T10:38:34;10.00;99.90
35804;DHT22;21924;51.934;7.414;2022-11-25T10:41:23;10.00;99.90
35804;DHT22;21924;51.934;7.414;2022-11-25T10:44:25;10.00;99.90
35804;DHT22;21924;51.934;7.414;2022-11-25T10:50:40;9.90;99.90
35804;DHT22;21924;51.934;7.414;2022-11-25T10:53:31;10.10;99.90
35804;DHT22;21924;51.934;7.414;2022-11-25T10:56:17;10.20;99.90
35804;DHT22;21924;51.934;7.414;2022-11-25T10:59:12;10.30;99.90
35804;DHT22;21924;51.934;7.414;2022-11-25T11:11:24;10.80;99.90
35804;DHT22;21924;51.934;7.414;2022-11-25T11:14:13;11.00;99.90
35804;DHT22;21924;51.934;7.414;2022-11-25T11:17:01;11.10;99.90
35804;DHT22;21924;51.934;7.414;2022-11-25T11:23:07;11.10;99.90
35804;DHT22;21924;51.934;7.414;2022-11-25T11:26:05;11.10;99.90
35804;DHT22;21924;51.934;7.414;2022-11-25T11:28:58;11.00;99.90
35804;DHT22;21924;51.934;7.414;2022-11-25T11:31:48;11.00;99.90
35804;DHT22;21924;51.934;7.414;2022-11-25T11:41:55;11.00;99.90
35804;DHT22;21924;51.934;7.414;2022-11-25T11:54:02;11.30;99.90
35804;DHT22;21924;51.934;7.414;2022-11-25T11:56:59;11.30;99.90
35804;DHT22;21924;51.934;7.414;2022-11-25T11:59:47;11.40;99.90
35804;DHT22;21924;51.934;7.414;2022-11-25T12:05:39;11.50;99.90
35804;DHT22;21924;51.934;7.414;2022-11-25T12:11:17;11.70;99.90
35804;DHT22;21924;51.934;7.414;2022-11-25T12:14:13;11.70;99.90
35804;DHT22;21924;51.934;7.414;2022-11-25T12:17:14;11.80;99.90
35804;DHT22;21924;51.934;7.414;2022-11-25T12:20:27;11.70;99.90
35804;DHT22;21924;51.934;7.414;2022-11-25T12:23:25;11.70;99.90
35804;DHT22;21924;51.934;7.414;2022-11-25T12:26:34;11.60;99.90
35804;DHT22;21924;51.934;7.414;2022-11-25T12:29:33;11.50;99.90
35804;DHT22;21924;51.934;7.414;2022-11-25T12:35:44;11.40;99.90
35804;DHT22;21924;51.934;7.414;2022-11-25T12:41:39;11.20;99.90
35804;DHT22;21924;51.934;7.414;2022-11-25T12:44:52;11.10;99.90
35804;DHT22;21924;51.934;7.414;2022-11-25T12:47:39;11.10;99.90
35804;DHT22;21924;51.934;7.414;2022-11-25T12:54:15;11.00;99.90
35804;DHT22;21924;51.934;7.414;2022-11-25T13:06:04;10.80;99.90
35804;DHT22;21924;51.934;7.414;2022-11-25T13:15:23;10.80;99.90
35804;DHT22;21924;51.934;7.414;2022-11-25T13:18:12;10.90;99.90
35804;DHT22;21924;51.934;7.414;2022-11-25T13:21:08;10.80;99.90
35804;DHT22;21924;51.934;7.414;2022-11-25T13:23:55;10.80;99.90
35804;DHT22;21924;51.934;7.414;2022-11-25T13:26:48;10.80;99.90
35804;DHT22;21924;51.934;7.414;2022-11-25T13:32:31;10.90;99.90
35804;DHT22;21924;51.934;7.414;2022-11-25T13:38:07;10.90;99.90
35804;DHT22;21924;51.934;7.414;2022-11-25T13:41:31;10.90;99.90
35804;DHT22;21924;51.934;7.414;2022-11-25T13:44:20;10.80;99.90
35804;DHT22;21924;51.934;7.414;2022-11-25T13:47:34;10.80;99.90
35804;DHT22;21924;51.934;7.414;2022-11-25T13:50:23;10.80;99.90
35804;DHT22;21924;51.934;7.414;2022-11-25T13:54:03;10.70;99.90
35804;DHT22;21924;51.934;7.414;2022-11-25T13:57:00;10.80;99.90
35804;DHT22;21924;51.934;7.414;2022-11-25T14:06:43;10.60;99.90
35804;DHT22;21924;51.934;7.414;2022-11-25T14:13:01;10.60;99.90
35804;DHT22;21924;51.934;7.414;2022-11-25T14:16:13;10.50;99.90
35804;DHT22;21924;51.934;7.414;2022-11-25T14:24:54;10.50;99.90
35804;DHT22;21924;51.934;7.414;2022-11-25T14:27:45;10.50;99.90
35804;DHT22;21924;51.934;7.414;2022-11-25T14:30:31;10.50;99.90
35804;DHT22;21924;51.934;7.414;2022-11-25T14:33:22;10.40;99.90
35804;DHT22;21924;51.934;7.414;2022-11-25T14:36:11;10.40;99.90
35804;DHT22;21924;51.934;7.414;2022-11-25T14:39:25;10.40;99.90
35804;DHT22;21924;51.934;7.414;2022-11-25T14:42:15;10.40;99.90
35804;DHT22;21924;51.934;7.414;2022-11-25T14:45:00;10.40;99.90
35804;DHT22;21924;51.934;7.414;2022-11-25T14:47:46;10.40;99.90
35804;DHT22;21924;51.934;7.414;2022-11-25T14:50:30;10.30;99.90
35804;DHT22;21924;51.934;7.414;2022-11-25T14:53:14;10.40;99.90
35804;DHT22;21924;51.934;7.414;2022-11-25T14:56:00;10.30;99.90
35804;DHT22;21924;51.934;7.414;2022-11-25T14:58:49;10.30;99.90
35804;DHT22;21924;51.934;7.414;2022-11-25T15:01:35;10.30;99.90
35804;DHT22;21924;51.934;7.414;2022-11-25T15:04:22;10.30;99.90
35804;DHT22;21924;51.934;7.414;2022-11-25T15:07:18;10.30;99.90
35804;DHT22;21924;51.934;7.414;2022-11-25T15:10:03;10.30;99.90
35804;DHT22;21924;51.934;7.414;2022-11-25T15:12:47;10.20;99.90
35804;DHT22;21924;51.934;7.414;2022-11-25T15:15:31;10.20;99.90
35804;DHT22;21924;51.934;7.414;2022-11-25T15:18:21;10.10;99.90
35804;DHT22;21924;51.934;7.414;2022-11-25T15:21:06;10.10;99.90
35804;DHT22;21924;51.934;7.414;2022-11-25T15:23:50;10.10;99.90
35804;DHT22;21924;51.934;7.414;2022-11-25T15:26:34;10.00;99.90
35804;DHT22;21924;51.934;7.414;2022-11-25T15:29:20;10.00;99.90
35804;DHT22;21924;51.934;7.414;2022-11-25T15:32:04;10.00;99.90
35804;DHT22;21924;51.934;7.414;2022-11-25T15:34:49;9.90;99.90
35804;DHT22;21924;51.934;7.414;2022-11-25T15:37:34;9.90;99.90
35804;DHT22;21924;51.934;7.414;2022-11-25T15:40:39;9.90;99.90
35804;DHT22;21924;51.934;7.414;2022-11-25T15:43:28;9.80;99.90
35804;DHT22;21924;51.934;7.414;2022-11-25T15:46:13;9.60;99.90
35804;DHT22;21924;51.934;7.414;2022-11-25T15:49:00;9.60;99.90
35804;DHT22;21924;51.934;7.414;2022-11-25T15:51:51;9.50;99.90
35804;DHT22;21924;51.934;7.414;2022-11-25T15:54:41;9.50;99.90
35804;DHT22;21924;51.934;7.414;2022-11-25T15:57:36;9.50;99.90
35804;DHT22;21924;51.934;7.414;2022-11-25T16:00:22;9.60;99.90
35804;DHT22;21924;51.934;7.414;2022-11-25T16:03:21;9.60;99.90
35804;DHT22;21924;51.934;7.414;2022-11-25T16:06:21;9.60;99.90
35804;DHT22;21924;51.934;7.414;2022-11-25T16:09:19;9.60;99.90
35804;DHT22;21924;51.934;7.414;2022-11-25T16:12:05;9.50;99.90
35804;DHT22;21924;51.934;7.414;2022-11-25T16:14:49;9.50;99.90
35804;DHT22;21924;51.934;7.414;2022-11-25T16:17:35;9.50;99.90
35804;DHT22;21924;51.934;7.414;2022-11-25T16:20:21;9.50;99.90
35804;DHT22;21924;51.934;7.414;2022-11-25T16:23:07;9.40;99.90
35804;DHT22;21924;51.934;7.414;2022-11-25T16:26:00;9.40;99.90
35804;DHT22;21924;51.934;7.414;2022-11-25T16:28:57;9.30;99.90
35804;DHT22;21924;51.934;7.414;2022-11-25T16:31:41;9.20;99.90
35804;DHT22;21924;51.934;7.414;2022-11-25T16:34:26;9.20;99.90
35804;DHT22;21924;51.934;7.414;2022-11-25T16:37:11;9.10;99.90
35804;DHT22;21924;51.934;7.414;2022-11-25T16:39:55;8.90;99.90
35804;DHT22;21924;51.934;7.414;2022-11-25T16:42:39;8.90;99.90
35804;DHT22;21924;51.934;7.414;2022-11-25T16:45:26;8.80;99.90
35804;DHT22;21924;51.934;7.414;2022-11-25T16:48:14;8.70;99.90
35804;DHT22;21924;51.934;7.414;2022-11-25T16:51:00;8.60;99.90
35804;DHT22;21924;51.934;7.414;2022-11-25T16:53:45;8.50;99.90
35804;DHT22;21924;51.934;7.414;2022-11-25T16:56:29;8.50;99.90
35804;DHT22;21924;51.934;7.414;2022-11-25T16:59:19;8.40;99.90
35804;DHT22;21924;51.934;7.414;2022-11-25T17:02:16;8.40;99.90
35804;DHT22;21924;51.934;7.414;2022-11-25T17:05:21;8.30;99.90
35804;DHT22;21924;51.934;7.414;2022-11-25T17:08:06;8.20;99.90
35804;DHT22;21924;51.934;7.414;2022-11-25T17:10:58;8.10;99.90
35804;DHT22;21924;51.934;7.414;2022-11-25T17:13:44;8.10;99.90
35804;DHT22;21924;51.934;7.414;2022-11-25T17:16:30;8.10;99.90
35804;DHT22;21924;51.934;7.414;2022-11-25T17:19:15;8.20;99.90
35804;DHT22;21924;51.934;7.414;2022-11-25T17:21:59;8.20;99.90
35804;DHT22;21924;51.934;7.414;2022-11-25T17:24:44;8.20;99.90
35804;DHT22;21924;51.934;7.414;2022-11-25T17:27:30;8.20;99.90
35804;DHT22;21924;51.934;7.414;2022-11-25T17:30:21;8.20;99.90
35804;DHT22;21924;51.934;7.414;2022-11-25T17:33:14;8.20;99.90
35804;DHT22;21924;51.934;7.414;2022-11-25T17:35:58;8.30;99.90
35804;DHT22;21924;51.934;7.414;2022-11-25T17:38:43;8.30;99.90
35804;DHT22;21924;51.934;7.414;2022-11-25T17:41:27;8.30;99.90
35804;DHT22;21924;51.934;7.414;2022-11-25T17:44:24;8.30;99.90
35804;DHT22;21924;51.934;7.414;2022-11-25T17:47:14;8.30;99.90
35804;DHT22;21924;51.934;7.414;2022-11-25T17:49:58;8.30;99.90
35804;DHT22;21924;51.934;7.414;2022-11-25T17:52:43;8.30;99.90
35804;DHT22;21924;51.934;7.414;2022-11-25T17:55:27;8.30;99.90
35804;DHT22;21924;51.934;7.414;2022-11-25T17:58:11;8.30;99.90
35804;DHT22;21924;51.934;7.414;2022-11-25T18:00:58;8.30;99.90
35804;DHT22;21924;51.934;7.414;2022-11-25T18:03:42;8.30;99.90
35804;DHT22;21924;51.934;7.414;2022-11-25T18:06:26;8.30;99.90
35804;DHT22;21924;51.934;7.414;2022-11-25T18:09:11;8.30;99.90
35804;DHT22;21924;51.934;7.414;2022-11-25T18:11:57;8.20;99.90
35804;DHT22;21924;51.934;7.414;2022-11-25T18:14:42;8.20;99.90
35804;DHT22;21924;51.934;7.414;2022-11-25T18:17:27;8.10;99.90
35804;DHT22;21924;51.934;7.414;2022-11-25T18:20:20;8.00;99.90
35804;DHT22;21924;51.934;7.414;2022-11-25T18:23:05;8.00;99.90
35804;DHT22;21924;51.934;7.414;2022-11-25T18:25:54;8.00;99.90
35804;DHT22;21924;51.934;7.414;2022-11-25T18:28:39;8.10;99.90
35804;DHT22;21924;51.934;7.414;2022-11-25T18:31:23;8.20;99.90
35804;DHT22;21924;51.934;7.414;2022-11-25T18:34:13;8.20;99.90
35804;DHT22;21924;51.934;7.414;2022-11-25T18:36:58;8.30;99.90
35804;DHT22;21924;51.934;7.414;2022-11-25T18:39:42;8.30;99.90
35804;DHT22;21924;51.934;7.414;2022-11-25T18:42:26;8.40;99.90
35804;DHT22;21924;51.934;7.414;2022-11-25T18:45:21;8.40;99.90
35804;DHT22;21924;51.934;7.414;2022-11-25T18:50:56;8.40;99.90
35804;DHT22;21924;51.934;7.414;2022-11-25T18:53:41;8.30;99.90
35804;DHT22;21924;51.934;7.414;2022-11-25T18:56:25;8.30;99.90
35804;DHT22;21924;51.934;7.414;2022-11-25T18:59:14;8.20;99.90
35804;DHT22;21924;51.934;7.414;2022-11-25T19:02:00;8.10;99.90
35804;DHT22;21924;51.934;7.414;2022-11-25T19:04:44;8.00;99.90
35804;DHT22;21924;51.934;7.414;2022-11-25T19:07:30;7.90;99.90
35804;DHT22;21924;51.934;7.414;2022-11-25T19:10:15;7.80;99.90
35804;DHT22;21924;51.934;7.414;2022-11-25T19:13:02;7.70;99.90
35804;DHT22;21924;51.934;7.414;2022-11-25T19:15:50;7.80;99.90
35804;DHT22;21924;51.934;7.414;2022-11-25T19:18:35;7.80;99.90
35804;DHT22;21924;51.934;7.414;2022-11-25T19:21:20;7.70;99.90
35804;DHT22;21924;51.934;7.414;2022-11-25T19:24:10;7.60;99.90
35804;DHT22;21924;51.934;7.414;2022-11-25T19:26:56;7.50;99.90
35804;DHT22;21924;51.934;7.414;2022-11-25T19:29:40;7.60;99.90
35804;DHT22;21924;51.934;7.414;2022-11-25T19:32:27;7.60;99.90
35804;DHT22;21924;51.934;7.414;2022-11-25T19:35:19;7.70;99.90
35804;DHT22;21924;51.934;7.414;2022-11-25T19:38:18;7.70;99.90